Terminal Aerodrome Forecast
Issued by NWS

Home | Current Version | Previous Version | Text Only | Print | Product List | Glossary On
Versions: 1 2 3 4 5 6 7 8 9 10 11 12 13 14 15 16 17 18 19 20 21 22 23 24 25 26 27 28 29 30 31
000
FTUS41 KOKX 261338 AAA
TAFTEB
TAF AMD
KTEB 261338Z 2614/2712 03007KT 4SM -RA BR OVC006
     FM261600 02005KT 5SM -SHRA BR BKN009 OVC012
     FM261900 02004KT 6SM BR SCT009 OVC012
     FM270000 VRB03KT 4SM BR OVC006
     FM270200 VRB03KT 2SM BR OVC005
     FM270400 VRB03KT 3/4SM BR OVC003=

USA.gov is the U.S. government's official web portal to all federal, state and local government web resources and services.